createdAt,value
2018-05-04T00:00:12.813Z,97.93
2018-05-04T00:01:12.735Z,97.93
2018-05-04T00:02:12.660Z,97.55
2018-05-04T00:03:12.584Z,97.45
2018-05-04T00:04:12.503Z,97.55
2018-05-04T00:05:12.425Z,97.55
2018-05-04T00:06:12.347Z,97.36
2018-05-04T00:07:12.269Z,97.83
2018-05-04T00:08:12.192Z,97.36
2018-05-04T00:09:12.115Z,97.74
2018-05-04T00:10:12.038Z,97.64
2018-05-04T00:11:11.963Z,98.41
2018-05-04T00:12:11.882Z,98.12
2018-05-04T00:13:11.805Z,98.60
2018-05-04T00:14:11.728Z,98.31
2018-05-04T00:15:11.651Z,97.74
2018-05-04T00:16:11.575Z,97.93
2018-05-04T00:17:11.496Z,97.36
2018-05-04T00:18:11.419Z,97.74
2018-05-04T00:19:11.342Z,97.45
2018-05-04T00:20:11.263Z,97.55
2018-05-04T00:21:11.187Z,98.12
2018-05-04T00:22:11.109Z,98.17
2018-05-04T00:23:11.032Z,97.64
2018-05-04T00:24:10.957Z,98.22
2018-05-04T00:25:10.878Z,98.41
2018-05-04T00:26:10.799Z,98.97
2018-05-04T00:27:10.723Z,98.50
2018-05-04T00:28:10.655Z,98.79
2018-05-04T00:29:10.567Z,98.69
2018-05-04T00:30:10.491Z,98.97
2018-05-04T00:31:10.417Z,98.69
2018-05-04T00:32:10.337Z,98.79
2018-05-04T00:33:10.260Z,98.97
2018-05-04T00:34:10.181Z,98.50
2018-05-04T00:35:10.105Z,98.79
2018-05-04T00:36:10.026Z,98.50
2018-05-04T00:37:09.950Z,98.79
2018-05-04T00:38:09.873Z,98.97
2018-05-04T00:39:09.796Z,98.31
2018-05-04T00:40:09.718Z,98.79
2018-05-04T00:41:09.640Z,98.79
2018-05-04T00:42:09.562Z,98.74
2018-05-04T00:43:09.492Z,98.03
2018-05-04T00:44:09.407Z,98.17
2018-05-04T00:45:09.336Z,98.07
2018-05-04T00:46:09.254Z,97.97
2018-05-04T00:47:09.177Z,98.74
2018-05-04T00:48:09.097Z,98.83
2018-05-04T00:49:09.020Z,98.55
2018-05-04T00:50:08.944Z,98.36
2018-05-04T00:51:08.866Z,98.55
2018-05-04T00:52:08.787Z,98.74
2018-05-04T00:53:08.710Z,98.55
2018-05-04T00:54:08.633Z,98.74
2018-05-04T00:55:08.556Z,98.83
2018-05-04T00:56:08.483Z,99.30
2018-05-04T00:57:08.399Z,98.83
2018-05-04T00:58:08.323Z,99.11
2018-05-04T00:59:08.246Z,98.93
2018-05-04T01:00:08.166Z,99.11
2018-05-04T01:01:08.093Z,99.11
2018-05-04T01:02:08.013Z,98.93
2018-05-04T01:03:07.935Z,98.74
2018-05-04T01:04:07.857Z,98.55
2018-05-04T01:05:07.779Z,98.93
2018-05-04T01:06:07.701Z,98.64
2018-05-04T01:07:07.624Z,98.74
2018-05-04T01:08:07.545Z,98.93
2018-05-04T01:09:07.468Z,98.93
2018-05-04T01:10:07.393Z,99.16
2018-05-04T01:11:07.312Z,98.40
2018-05-04T01:12:07.233Z,98.59
2018-05-04T01:13:07.156Z,98.59
2018-05-04T01:14:07.078Z,98.97
2018-05-04T01:15:07.001Z,98.88
2018-05-04T01:16:06.921Z,98.97
2018-05-04T01:17:06.844Z,98.40
2018-05-04T01:18:06.767Z,98.88
2018-05-04T01:19:06.688Z,99.07
2018-05-04T01:20:06.609Z,98.97
2018-05-04T01:21:06.533Z,98.97
2018-05-04T01:22:06.455Z,98.88
2018-05-04T01:23:06.377Z,98.79
2018-05-04T01:24:06.309Z,99.07
2018-05-04T01:25:06.219Z,99.07
2018-05-04T01:26:06.142Z,98.79
2018-05-04T01:27:06.064Z,99.26
2018-05-04T01:28:05.985Z,99.26
2018-05-04T01:29:05.905Z,98.97
2018-05-04T01:30:05.827Z,98.88
2018-05-04T01:31:05.750Z,98.97
2018-05-04T01:32:05.671Z,99.26
2018-05-04T01:33:05.594Z,99.44
2018-05-04T01:34:05.516Z,99.99
2018-05-04T01:35:05.438Z,99.73
2018-05-04T01:36:05.359Z,99.73
2018-05-04T01:37:05.281Z,99.73
2018-05-04T01:38:05.202Z,99.83
2018-05-04T01:39:05.133Z,99.83
2018-05-04T01:40:05.046Z,99.99
2018-05-04T01:41:04.968Z,99.99
2018-05-04T01:42:04.890Z,99.99
2018-05-04T01:43:04.812Z,99.99
2018-05-04T01:44:04.733Z,99.99
2018-05-04T01:45:04.656Z,99.99
2018-05-04T01:46:04.576Z,99.99
2018-05-04T01:47:04.500Z,99.99
2018-05-04T01:48:04.422Z,99.99
2018-05-04T01:49:04.342Z,99.99
2018-05-04T01:50:04.265Z,99.99
2018-05-04T01:51:04.185Z,99.99
2018-05-04T01:52:04.112Z,99.99
2018-05-04T01:53:04.027Z,99.99
2018-05-04T01:54:03.950Z,99.99
2018-05-04T01:55:03.872Z,99.99
2018-05-04T01:56:03.794Z,99.99
2018-05-04T01:57:03.714Z,99.99
2018-05-04T01:58:03.636Z,99.99
2018-05-04T01:59:03.558Z,99.99
2018-05-04T02:00:03.478Z,99.99
2018-05-04T02:01:03.400Z,99.99
2018-05-04T02:02:03.322Z,99.99
2018-05-04T02:03:03.244Z,99.99
2018-05-04T02:04:03.165Z,99.99
2018-05-04T02:05:03.087Z,99.99
2018-05-04T02:06:03.008Z,99.99
2018-05-04T02:07:02.933Z,99.99
2018-05-04T02:08:02.851Z,99.99
2018-05-04T02:09:02.772Z,99.99
2018-05-04T02:10:02.694Z,99.99
2018-05-04T02:11:02.615Z,99.99
2018-05-04T02:12:02.534Z,99.99
2018-05-04T02:13:02.457Z,99.99
2018-05-04T02:14:02.379Z,99.99
2018-05-04T02:15:02.301Z,99.99
2018-05-04T02:16:02.224Z,99.99
2018-05-04T02:17:02.142Z,99.99
2018-05-04T02:18:02.067Z,99.99
2018-05-04T02:19:01.986Z,99.99
2018-05-04T02:20:01.906Z,99.99
2018-05-04T02:21:01.827Z,99.99
2018-05-04T02:22:01.749Z,99.99
2018-05-04T02:23:01.671Z,99.99
2018-05-04T02:24:01.591Z,99.99
2018-05-04T02:25:01.518Z,99.99
2018-05-04T02:26:01.434Z,99.99
2018-05-04T02:27:01.357Z,99.99
2018-05-04T02:28:01.280Z,99.99
2018-05-04T02:29:01.196Z,99.99
2018-05-04T02:30:01.119Z,99.99
2018-05-04T02:31:01.041Z,99.99
2018-05-04T02:32:00.961Z,99.99
2018-05-04T02:33:00.883Z,99.99
2018-05-04T02:34:00.804Z,99.99
2018-05-04T02:35:00.727Z,99.99
2018-05-04T02:36:00.645Z,99.99
2018-05-04T02:37:00.868Z,99.99
2018-05-04T02:38:00.488Z,99.99
2018-05-04T02:39:00.410Z,99.99
2018-05-04T02:40:00.329Z,99.99
2018-05-04T02:41:00.251Z,99.99
2018-05-04T02:42:00.173Z,99.99
2018-05-04T02:43:00.093Z,99.99
2018-05-04T02:44:00.015Z,99.99
2018-05-04T02:44:59.937Z,99.99
2018-05-04T02:45:59.859Z,99.99
2018-05-04T02:46:59.779Z,99.99
2018-05-04T02:47:59.698Z,99.99
2018-05-04T02:48:59.620Z,99.99
2018-05-04T02:49:59.541Z,99.99
2018-05-04T02:50:59.464Z,99.99
2018-05-04T02:51:59.383Z,99.99
2018-05-04T02:52:59.304Z,99.99
2018-05-04T02:53:59.225Z,99.99
2018-05-04T02:54:59.146Z,99.99
2018-05-04T02:55:59.106Z,99.99
2018-05-04T02:56:58.989Z,99.99
2018-05-04T02:57:58.909Z,99.99
2018-05-04T02:58:58.834Z,99.99
2018-05-04T02:59:58.751Z,99.99
2018-05-04T03:00:58.671Z,99.99
2018-05-04T03:01:58.594Z,99.99
2018-05-04T03:02:58.514Z,99.99
2018-05-04T03:03:58.435Z,99.99
2018-05-04T03:04:58.355Z,99.99
2018-05-04T03:05:58.281Z,99.99
2018-05-04T03:06:58.202Z,99.99
2018-05-04T03:07:58.118Z,99.99
2018-05-04T03:08:58.039Z,99.99
2018-05-04T03:09:57.960Z,99.99
2018-05-04T03:10:57.890Z,99.99
2018-05-04T03:11:57.802Z,99.99
2018-05-04T03:12:57.723Z,99.99
2018-05-04T03:13:57.644Z,99.99
2018-05-04T03:14:57.568Z,99.99
2018-05-04T03:15:57.485Z,99.99
2018-05-04T03:16:57.406Z,99.99
2018-05-04T03:17:57.327Z,99.99
2018-05-04T03:18:57.250Z,99.99
2018-05-04T03:19:57.168Z,99.99
2018-05-04T03:20:57.093Z,99.99
2018-05-04T03:21:57.025Z,99.99
2018-05-04T03:22:56.934Z,99.99
2018-05-04T03:23:56.852Z,99.99
2018-05-04T03:24:56.772Z,99.99
2018-05-04T03:25:56.693Z,99.99
2018-05-04T03:26:56.615Z,99.99
2018-05-04T03:27:56.534Z,99.99
2018-05-04T03:28:56.456Z,99.99
2018-05-04T03:29:56.378Z,99.99
2018-05-04T03:30:56.298Z,99.99
2018-05-04T03:31:56.220Z,99.99
2018-05-04T03:32:56.140Z,99.99
2018-05-04T03:33:56.060Z,99.99
2018-05-04T03:34:55.980Z,99.99
2018-05-04T03:35:55.901Z,99.99
2018-05-04T03:36:55.822Z,99.99
2018-05-04T03:37:55.743Z,99.99
2018-05-04T03:38:55.663Z,99.99
2018-05-04T03:39:55.583Z,99.99
2018-05-04T03:40:55.504Z,99.99
2018-05-04T03:41:55.425Z,99.99
2018-05-04T03:42:55.412Z,99.99
2018-05-04T03:43:55.269Z,99.99
2018-05-04T03:44:55.233Z,99.99
2018-05-04T03:45:55.108Z,99.99
2018-05-04T03:46:55.030Z,99.99
2018-05-04T03:47:54.947Z,99.99
2018-05-04T03:48:54.879Z,99.99
2018-05-04T03:49:54.790Z,99.99
2018-05-04T03:50:54.716Z,99.99
2018-05-04T03:51:54.632Z,99.99
2018-05-04T03:52:54.561Z,99.99
2018-05-04T03:53:54.477Z,99.99
2018-05-04T03:54:54.396Z,99.99
2018-05-04T03:55:54.314Z,99.99
2018-05-04T03:56:54.235Z,99.99
2018-05-04T03:57:54.157Z,99.99
2018-05-04T03:58:54.076Z,99.99
2018-05-04T03:59:53.996Z,99.99
2018-05-04T04:00:53.917Z,99.99
2018-05-04T04:01:53.838Z,99.99
2018-05-04T04:02:53.759Z,99.99
2018-05-04T04:03:53.686Z,99.99
2018-05-04T04:04:53.599Z,99.99
2018-05-04T04:05:53.520Z,99.99
2018-05-04T04:06:53.441Z,99.99
2018-05-04T04:07:53.361Z,99.99
2018-05-04T04:08:53.282Z,99.99
2018-05-04T04:09:53.202Z,99.99
2018-05-04T04:10:53.123Z,99.99
2018-05-04T04:11:53.043Z,99.99
2018-05-04T04:12:52.964Z,99.99
2018-05-04T04:13:52.884Z,99.99
2018-05-04T04:14:52.805Z,99.99
2018-05-04T04:15:52.725Z,99.99
2018-05-04T04:16:52.646Z,99.99
2018-05-04T04:17:52.643Z,99.99
2018-05-04T04:18:52.487Z,99.99
2018-05-04T04:19:52.407Z,99.99
2018-05-04T04:20:52.328Z,99.99
2018-05-04T04:21:52.247Z,99.99
2018-05-04T04:22:52.170Z,99.99
2018-05-04T04:23:52.090Z,99.99
2018-05-04T04:24:52.010Z,99.99
2018-05-04T04:25:51.932Z,99.99
2018-05-04T04:26:51.852Z,99.99
2018-05-04T04:27:51.772Z,99.99
2018-05-04T04:28:51.693Z,99.99
2018-05-04T04:29:51.613Z,99.99
2018-05-04T04:30:51.535Z,99.99
2018-05-04T04:31:51.453Z,99.99
2018-05-04T04:32:51.374Z,99.99
2018-05-04T04:33:51.295Z,99.99
2018-05-04T04:34:51.216Z,99.99
2018-05-04T04:35:51.136Z,99.99
2018-05-04T04:36:51.058Z,99.99
2018-05-04T04:37:50.978Z,99.99
2018-05-04T04:38:50.919Z,99.99
2018-05-04T04:39:50.818Z,99.99
2018-05-04T04:40:50.739Z,99.99
2018-05-04T04:41:50.661Z,99.99
2018-05-04T04:42:50.584Z,99.99
2018-05-04T04:43:50.501Z,99.99
2018-05-04T04:44:50.422Z,99.99
2018-05-04T04:45:50.343Z,99.99
2018-05-04T04:46:50.265Z,99.99
2018-05-04T04:47:50.184Z,99.99
2018-05-04T04:48:50.109Z,99.99
2018-05-04T04:49:50.025Z,99.99
2018-05-04T04:50:49.947Z,99.99
2018-05-04T04:51:49.868Z,99.99
2018-05-04T04:52:49.788Z,99.99
2018-05-04T04:53:49.713Z,99.99
2018-05-04T04:54:49.631Z,99.99
2018-05-04T04:55:49.551Z,99.99
2018-05-04T04:56:49.472Z,99.99
2018-05-04T04:57:49.395Z,99.99
2018-05-04T04:58:49.314Z,99.99
2018-05-04T04:59:49.234Z,99.99
2018-05-04T05:00:49.157Z,99.99
2018-05-04T05:01:49.119Z,99.99
2018-05-04T05:02:49.005Z,99.99
2018-05-04T05:03:48.918Z,99.99
2018-05-04T05:04:48.839Z,99.99
2018-05-04T05:05:48.761Z,99.99
2018-05-04T05:06:48.688Z,99.99
2018-05-04T05:07:48.605Z,99.99
2018-05-04T05:08:48.523Z,99.99
2018-05-04T05:09:48.445Z,99.99
2018-05-04T05:10:48.365Z,99.99
2018-05-04T05:11:48.286Z,99.99
2018-05-04T05:12:48.210Z,99.99
2018-05-04T05:13:48.131Z,99.99
2018-05-04T05:14:48.050Z,99.99
2018-05-04T05:15:47.971Z,99.99
2018-05-04T05:16:47.895Z,99.99
2018-05-04T05:17:47.828Z,99.99
2018-05-04T05:18:47.740Z,99.99
2018-05-04T05:19:47.656Z,99.99
2018-05-04T05:20:47.578Z,99.99
2018-05-04T05:21:47.501Z,99.99
2018-05-04T05:22:47.421Z,99.99
2018-05-04T05:23:47.375Z,99.99
2018-05-04T05:24:47.269Z,99.99
2018-05-04T05:25:47.186Z,99.99
2018-05-04T05:26:47.107Z,99.99
2018-05-04T05:27:47.028Z,99.99
2018-05-04T05:28:46.949Z,99.99
2018-05-04T05:29:46.873Z,99.99
2018-05-04T05:30:46.802Z,99.99
2018-05-04T05:31:46.716Z,99.99
2018-05-04T05:32:46.638Z,99.99
2018-05-04T05:33:46.565Z,99.99
2018-05-04T05:34:46.482Z,99.99
2018-05-04T05:35:46.403Z,99.99
2018-05-04T05:36:46.325Z,99.99
2018-05-04T05:37:46.247Z,99.99
2018-05-04T05:38:46.169Z,99.99
2018-05-04T05:39:46.091Z,99.99
2018-05-04T05:40:46.014Z,99.99
2018-05-04T05:41:45.936Z,99.99
2018-05-04T05:42:45.858Z,99.99
2018-05-04T05:43:45.780Z,99.99
2018-05-04T05:44:45.701Z,99.99
2018-05-04T05:45:45.625Z,99.99
2018-05-04T05:46:45.550Z,99.99
2018-05-04T05:47:45.468Z,99.99
2018-05-04T05:48:45.390Z,99.99
2018-05-04T05:49:45.314Z,99.99
2018-05-04T05:50:45.235Z,99.99
2018-05-04T05:51:45.170Z,99.21
2018-05-04T05:52:45.080Z,98.07
2018-05-04T05:53:45.003Z,98.41
2018-05-04T05:54:44.955Z,97.93
2018-05-04T05:55:44.857Z,97.27
2018-05-04T05:56:44.768Z,96.98
2018-05-04T05:57:44.692Z,96.50
2018-05-04T05:58:44.615Z,96.98
2018-05-04T05:59:44.537Z,97.45
2018-05-04T06:00:44.467Z,97.27
2018-05-04T06:01:44.382Z,97.08
2018-05-04T06:02:44.308Z,97.36
2018-05-04T06:03:44.228Z,98.22
2018-05-04T06:04:44.151Z,98.50
2018-05-04T06:05:44.073Z,97.93
2018-05-04T06:06:43.996Z,98.12
2018-05-04T06:07:43.918Z,97.03
2018-05-04T06:08:43.841Z,97.27
2018-05-04T06:09:43.774Z,97.13
2018-05-04T06:10:43.688Z,97.41
2018-05-04T06:11:43.610Z,97.31
2018-05-04T06:12:43.535Z,97.60
2018-05-04T06:13:43.457Z,97.13
2018-05-04T06:14:43.381Z,96.65
2018-05-04T06:15:43.301Z,97.13
2018-05-04T06:16:43.225Z,96.46
2018-05-04T06:17:43.149Z,96.17
2018-05-04T06:18:43.073Z,95.79
2018-05-04T06:19:42.994Z,94.18
2018-05-04T06:20:42.917Z,93.89
2018-05-04T06:21:42.841Z,94.08
2018-05-04T06:22:42.765Z,91.51
2018-05-04T06:23:42.688Z,90.47
2018-05-04T06:24:42.616Z,89.70
2018-05-04T06:25:42.535Z,89.75
2018-05-04T06:26:42.458Z,89.75
2018-05-04T06:27:42.381Z,89.56
2018-05-04T06:28:42.305Z,89.37
2018-05-04T06:29:42.229Z,87.94
2018-05-04T06:30:42.154Z,87.85
2018-05-04T06:31:42.075Z,88.23
2018-05-04T06:32:42.002Z,89.56
2018-05-04T06:33:41.925Z,90.13
2018-05-04T06:34:41.847Z,88.99
2018-05-04T06:35:41.770Z,89.84
2018-05-04T06:36:41.693Z,89.56
2018-05-04T06:37:41.617Z,89.37
2018-05-04T06:38:41.542Z,87.94
2018-05-04T06:39:41.497Z,88.89
2018-05-04T06:40:41.390Z,88.89
2018-05-04T06:41:41.313Z,88.60
2018-05-04T06:42:41.236Z,88.51
2018-05-04T06:43:41.160Z,88.04
2018-05-04T06:44:41.082Z,87.65
2018-05-04T06:45:41.045Z,88.65
2018-05-04T06:46:40.931Z,89.41
2018-05-04T06:47:40.854Z,88.08
2018-05-04T06:48:40.856Z,87.41
2018-05-04T06:49:40.702Z,87.13
2018-05-04T06:50:40.626Z,87.79
2018-05-04T06:51:40.549Z,87.60
2018-05-04T06:52:40.473Z,89.03
2018-05-04T06:53:40.398Z,89.13
2018-05-04T06:54:40.327Z,88.65
2018-05-04T06:55:40.251Z,86.69
2018-05-04T06:56:40.169Z,87.07
2018-05-04T06:57:40.094Z,87.74
2018-05-04T06:58:40.017Z,86.98
2018-05-04T06:59:39.940Z,88.60
2018-05-04T07:00:39.867Z,86.60
2018-05-04T07:01:39.790Z,87.74
2018-05-04T07:02:39.715Z,87.60
2018-05-04T07:03:39.639Z,86.55
2018-05-04T07:04:39.563Z,87.21
2018-05-04T07:05:39.488Z,87.69
2018-05-04T07:06:39.413Z,86.36
2018-05-04T07:07:39.339Z,86.07
2018-05-04T07:08:39.263Z,84.83
2018-05-04T07:09:39.187Z,84.55
2018-05-04T07:10:39.113Z,84.45
2018-05-04T07:11:39.037Z,85.31
2018-05-04T07:12:38.962Z,85.50
2018-05-04T07:13:38.888Z,85.69
2018-05-04T07:14:38.810Z,84.26
2018-05-04T07:15:38.735Z,84.55
2018-05-04T07:16:38.661Z,85.78
2018-05-04T07:17:38.586Z,85.69
2018-05-04T07:18:38.512Z,84.78
2018-05-04T07:19:38.436Z,83.50
2018-05-04T07:20:38.364Z,83.31
2018-05-04T07:21:38.286Z,83.35
2018-05-04T07:22:38.211Z,83.35
2018-05-04T07:23:38.139Z,84.01
2018-05-04T07:24:38.061Z,83.54
2018-05-04T07:25:37.986Z,82.01
2018-05-04T07:26:37.911Z,81.82
2018-05-04T07:27:37.882Z,83.39
2018-05-04T07:28:37.834Z,81.86
2018-05-04T07:29:37.687Z,81.15
2018-05-04T07:30:37.612Z,81.48
2018-05-04T07:31:37.536Z,79.86
2018-05-04T07:32:37.462Z,79.48
2018-05-04T07:33:37.387Z,78.62
2018-05-04T07:34:37.313Z,78.86
2018-05-04T07:35:37.237Z,80.49
2018-05-04T07:36:37.163Z,79.44
2018-05-04T07:37:37.089Z,80.77
2018-05-04T07:38:37.015Z,79.28
2018-05-04T07:39:36.938Z,79.25
2018-05-04T07:40:36.864Z,79.72
2018-05-04T07:41:36.789Z,79.15
2018-05-04T07:42:36.714Z,80.43
2018-05-04T07:43:36.638Z,80.72
2018-05-04T07:44:36.565Z,80.24
2018-05-04T07:45:36.495Z,80.62
2018-05-04T07:46:36.416Z,79.00
2018-05-04T07:47:36.343Z,78.33
2018-05-04T07:48:36.332Z,79.28
2018-05-04T07:49:36.191Z,78.91
2018-05-04T07:50:36.116Z,78.91
2018-05-04T07:51:36.040Z,78.85
2018-05-04T07:52:35.966Z,79.33
2018-05-04T07:53:35.893Z,79.43
2018-05-04T07:54:35.818Z,78.75
2018-05-04T07:55:35.742Z,79.17
2018-05-04T07:56:35.668Z,77.08
2018-05-04T07:57:35.593Z,77.08
2018-05-04T07:58:35.520Z,76.79
2018-05-04T07:59:35.445Z,76.69
2018-05-04T08:00:35.442Z,75.45
2018-05-04T08:01:35.299Z,76.21
2018-05-04T08:02:35.221Z,75.07
2018-05-04T08:03:35.147Z,76.03
2018-05-04T08:04:35.073Z,76.21
2018-05-04T08:05:34.999Z,76.21
2018-05-04T08:06:34.925Z,75.26
2018-05-04T08:07:34.851Z,74.21
2018-05-04T08:08:34.810Z,74.59
2018-05-04T08:09:34.702Z,75.01
2018-05-04T08:10:34.628Z,75.30
2018-05-04T08:11:34.558Z,74.73
2018-05-04T08:12:34.480Z,74.82
2018-05-04T08:13:34.406Z,75.10
2018-05-04T08:14:34.332Z,74.91
2018-05-04T08:15:34.259Z,74.76
2018-05-04T08:16:34.185Z,73.67
2018-05-04T08:17:34.113Z,74.28
2018-05-04T08:18:34.038Z,73.61
2018-05-04T08:19:33.965Z,73.90
2018-05-04T08:20:33.890Z,73.90
2018-05-04T08:21:33.817Z,73.33
2018-05-04T08:22:33.743Z,73.55
2018-05-04T08:23:33.690Z,73.17
2018-05-04T08:24:33.595Z,72.69
2018-05-04T08:25:33.523Z,71.93
2018-05-04T08:26:33.453Z,71.83
2018-05-04T08:27:33.380Z,73.55
2018-05-04T08:28:33.303Z,73.17
2018-05-04T08:29:33.230Z,72.79
2018-05-04T08:30:33.158Z,71.68
2018-05-04T08:31:33.087Z,71.87
2018-05-04T08:32:33.010Z,71.11
2018-05-04T08:33:32.936Z,71.68
2018-05-04T08:34:32.871Z,71.30
2018-05-04T08:35:32.792Z,71.39
2018-05-04T08:36:32.718Z,71.97
2018-05-04T08:37:32.647Z,71.11
2018-05-04T08:38:32.573Z,71.01
2018-05-04T08:39:32.500Z,73.40
2018-05-04T08:40:32.530Z,72.25
2018-05-04T08:41:32.354Z,69.60
2018-05-04T08:42:32.284Z,69.32
2018-05-04T08:43:32.208Z,69.00
2018-05-04T08:44:32.136Z,68.74
2018-05-04T08:45:32.063Z,71.42
2018-05-04T08:46:31.993Z,72.19
2018-05-04T08:47:31.918Z,71.23
2018-05-04T08:48:31.846Z,69.42
2018-05-04T08:49:31.773Z,71.62
2018-05-04T08:50:31.703Z,71.81
2018-05-04T08:51:31.628Z,72.19
2018-05-04T08:52:31.562Z,71.04
2018-05-04T08:53:31.484Z,71.62
2018-05-04T08:54:31.413Z,68.94
2018-05-04T08:55:31.340Z,70.12
2018-05-04T08:56:31.268Z,68.36
2018-05-04T08:57:31.198Z,67.50
2018-05-04T08:58:31.126Z,67.37
2018-05-04T08:59:31.055Z,68.04
2018-05-04T09:00:30.983Z,68.27
2018-05-04T09:01:30.910Z,68.27
2018-05-04T09:02:30.838Z,67.79
2018-05-04T09:03:30.766Z,67.76
2018-05-04T09:04:30.693Z,67.98
2018-05-04T09:05:30.639Z,70.85
2018-05-04T09:06:30.552Z,68.46
2018-05-04T09:07:30.479Z,68.65
2018-05-04T09:08:30.406Z,68.46
2018-05-04T09:09:30.336Z,68.65
2018-05-04T09:10:30.269Z,68.40
2018-05-04T09:11:30.193Z,67.34
2018-05-04T09:12:30.121Z,66.86
2018-05-04T09:13:30.055Z,67.34
2018-05-04T09:14:29.979Z,68.30
2018-05-04T09:15:29.907Z,68.68
2018-05-04T09:16:29.836Z,68.11
2018-05-04T09:17:29.765Z,67.05
2018-05-04T09:18:29.694Z,67.05
2018-05-04T09:19:29.623Z,67.57
2018-05-04T09:20:29.555Z,68.05
2018-05-04T09:21:29.524Z,67.05
2018-05-04T09:22:29.413Z,69.35
2018-05-04T09:23:29.339Z,69.74
2018-05-04T09:24:29.269Z,68.87
2018-05-04T09:25:29.198Z,66.48
2018-05-04T09:26:29.128Z,65.71
2018-05-04T09:27:29.061Z,66.38
2018-05-04T09:28:28.985Z,66.48
2018-05-04T09:29:28.914Z,66.48
2018-05-04T09:30:28.844Z,69.39
2018-05-04T09:31:28.772Z,67.85
2018-05-04T09:32:28.701Z,65.08
2018-05-04T09:33:28.637Z,64.40
2018-05-04T09:34:28.560Z,65.26
2018-05-04T09:35:28.489Z,65.75
2018-05-04T09:36:28.418Z,65.08
2018-05-04T09:37:28.356Z,63.83
2018-05-04T09:38:28.281Z,65.46
2018-05-04T09:39:28.206Z,65.36
2018-05-04T09:40:28.138Z,64.50
2018-05-04T09:41:28.067Z,63.54
2018-05-04T09:42:27.996Z,64.12
2018-05-04T09:43:28.015Z,63.83
2018-05-04T09:44:27.854Z,64.56
2018-05-04T09:45:27.783Z,65.36
2018-05-04T09:46:27.712Z,64.31
2018-05-04T09:47:27.646Z,65.08
2018-05-04T09:48:27.569Z,65.36
2018-05-04T09:49:27.500Z,66.42
2018-05-04T09:50:27.430Z,66.22
2018-05-04T09:51:27.358Z,65.94
2018-05-04T09:52:27.287Z,65.46
2018-05-04T09:53:27.216Z,64.98
2018-05-04T09:54:27.146Z,65.75
2018-05-04T09:55:27.074Z,65.46
2018-05-04T09:56:27.003Z,65.65
2018-05-04T09:57:26.937Z,66.03
2018-05-04T09:58:26.862Z,66.51
2018-05-04T09:59:26.790Z,66.55
2018-05-04T10:00:26.723Z,64.82
2018-05-04T10:01:26.648Z,65.46
2018-05-04T10:02:26.578Z,67.41
2018-05-04T10:03:26.541Z,66.55
2018-05-04T10:04:26.435Z,66.26
2018-05-04T10:05:26.365Z,66.16
2018-05-04T10:06:26.294Z,64.53
2018-05-04T10:07:26.221Z,64.25
2018-05-04T10:08:26.151Z,64.25
2018-05-04T10:09:26.081Z,66.64
2018-05-04T10:10:26.009Z,65.39
2018-05-04T10:11:25.938Z,64.34
2018-05-04T10:12:25.872Z,65.30
2018-05-04T10:13:25.796Z,64.47
2018-05-04T10:14:25.741Z,64.18
2018-05-04T10:15:25.653Z,65.23
2018-05-04T10:16:25.652Z,66.00
2018-05-04T10:17:25.512Z,65.81
2018-05-04T10:18:25.442Z,64.28
2018-05-04T10:19:25.381Z,63.42
2018-05-04T10:20:25.300Z,63.60
2018-05-04T10:21:25.227Z,64.47
2018-05-04T10:22:25.159Z,62.93
2018-05-04T10:23:25.085Z,63.32
2018-05-04T10:24:25.017Z,64.18
2018-05-04T10:25:24.944Z,66.77
2018-05-04T10:26:24.872Z,65.17
2018-05-04T10:27:24.802Z,63.45
2018-05-04T10:28:24.732Z,63.06
2018-05-04T10:29:24.660Z,63.35
2018-05-04T10:30:24.591Z,62.99
2018-05-04T10:31:24.577Z,64.50
2018-05-04T10:32:24.458Z,62.96
2018-05-04T10:33:24.378Z,63.25
2018-05-04T10:34:24.306Z,62.52
2018-05-04T10:35:24.235Z,62.39
2018-05-04T10:36:24.164Z,63.38
2018-05-04T10:37:24.094Z,62.42
2018-05-04T10:38:24.051Z,62.58
2018-05-04T10:39:23.952Z,62.81
2018-05-04T10:40:23.882Z,62.61
2018-05-04T10:41:23.813Z,62.19
2018-05-04T10:42:23.741Z,65.20
2018-05-04T10:43:23.669Z,61.33
2018-05-04T10:44:23.599Z,62.29
2018-05-04T10:45:23.529Z,63.35
2018-05-04T10:46:23.458Z,62.42
2018-05-04T10:47:23.387Z,61.65
2018-05-04T10:48:23.317Z,60.69
2018-05-04T10:49:23.247Z,62.71
2018-05-04T10:50:23.176Z,61.55
2018-05-04T10:51:23.105Z,61.17
2018-05-04T10:52:23.034Z,61.17
2018-05-04T10:53:22.964Z,61.65
2018-05-04T10:54:22.895Z,61.08
2018-05-04T10:55:22.823Z,61.68
2018-05-04T10:56:22.752Z,60.60
2018-05-04T10:57:22.682Z,61.01
2018-05-04T10:58:22.613Z,61.78
2018-05-04T10:59:22.542Z,62.29
2018-05-04T11:00:22.473Z,59.99
2018-05-04T11:01:22.404Z,59.69
2018-05-04T11:02:22.335Z,58.99
2018-05-04T11:03:22.263Z,58.70
2018-05-04T11:04:22.194Z,60.14
2018-05-04T11:05:22.183Z,59.41
2018-05-04T11:06:22.055Z,60.75
2018-05-04T11:07:21.984Z,60.85
2018-05-04T11:08:21.914Z,59.02
2018-05-04T11:09:21.845Z,58.92
2018-05-04T11:10:21.778Z,58.92
2018-05-04T11:11:21.705Z,60.01
2018-05-04T11:12:21.639Z,59.05
2018-05-04T11:13:21.567Z,58.86
2018-05-04T11:14:21.496Z,60.97
2018-05-04T11:15:21.427Z,61.65
2018-05-04T11:16:21.358Z,63.70
2018-05-04T11:17:21.288Z,60.24
2018-05-04T11:18:21.219Z,59.47
2018-05-04T11:19:21.204Z,59.37
2018-05-04T11:20:21.080Z,58.22
2018-05-04T11:21:21.012Z,58.31
2018-05-04T11:22:20.943Z,57.73
2018-05-04T11:23:20.872Z,57.64
2018-05-04T11:24:20.804Z,60.04
2018-05-04T11:25:20.786Z,58.70
2018-05-04T11:26:20.667Z,58.28
2018-05-04T11:27:20.597Z,60.04
2018-05-04T11:28:20.528Z,57.83
2018-05-04T11:29:20.459Z,60.17
2018-05-04T11:30:20.390Z,57.02
2018-05-04T11:31:20.321Z,54.74
2018-05-04T11:32:20.253Z,54.64
2018-05-04T11:33:20.185Z,53.87
2018-05-04T11:34:20.117Z,53.19
2018-05-04T11:35:20.049Z,53.48
2018-05-04T11:36:19.982Z,53.63
2018-05-04T11:37:19.915Z,52.55
2018-05-04T11:38:19.849Z,51.22
2018-05-04T11:39:19.780Z,51.70
2018-05-04T11:40:19.716Z,50.84
2018-05-04T11:41:19.650Z,50.69
2018-05-04T11:42:19.585Z,49.15
2018-05-04T11:43:19.519Z,48.39
2018-05-04T11:44:19.454Z,47.38
2018-05-04T11:45:19.388Z,47.26
2018-05-04T11:46:19.326Z,47.45
2018-05-04T11:47:19.261Z,49.05
2018-05-04T11:48:19.201Z,47.33
2018-05-04T11:49:19.136Z,45.93
2018-05-04T11:50:19.071Z,47.11
2018-05-04T11:51:19.008Z,45.54
2018-05-04T11:52:18.946Z,47.28
2018-05-04T11:53:18.884Z,46.92
2018-05-04T11:54:18.828Z,46.09
2018-05-04T11:55:18.782Z,44.45
2018-05-04T11:56:18.704Z,45.61
2018-05-04T11:57:18.638Z,47.16
2018-05-04T11:58:18.580Z,44.70
2018-05-04T11:59:18.519Z,45.23
2018-05-04T12:00:18.464Z,46.63
2018-05-04T12:01:18.397Z,47.36
2018-05-04T12:02:18.340Z,45.65
2018-05-04T12:03:18.277Z,45.37
2018-05-04T12:04:18.219Z,44.05
2018-05-04T12:05:18.165Z,42.85
2018-05-04T12:06:18.100Z,43.79
2018-05-04T12:07:18.041Z,43.87
2018-05-04T12:08:17.982Z,43.00
2018-05-04T12:09:17.923Z,44.67
2018-05-04T12:10:17.874Z,43.07
2018-05-04T12:11:17.807Z,44.45
2018-05-04T12:12:17.748Z,47.50
2018-05-04T12:13:17.691Z,43.76
2018-05-04T12:14:17.633Z,42.40
2018-05-04T12:15:17.574Z,41.66
2018-05-04T12:16:17.535Z,43.60
2018-05-04T12:17:17.459Z,43.82
2018-05-04T12:18:17.402Z,43.26
2018-05-04T12:19:17.343Z,43.41
2018-05-04T12:20:17.286Z,43.12
2018-05-04T12:21:17.233Z,44.49
2018-05-04T12:22:17.171Z,42.48
2018-05-04T12:23:17.117Z,42.60
2018-05-04T12:24:17.057Z,41.16
2018-05-04T12:25:17.000Z,41.14
2018-05-04T12:26:16.943Z,41.84
2018-05-04T12:27:16.884Z,42.56
2018-05-04T12:28:16.830Z,42.68
2018-05-04T12:29:16.773Z,43.32
2018-05-04T12:30:16.717Z,43.90
2018-05-04T12:31:16.707Z,42.66
2018-05-04T12:32:16.603Z,39.88
2018-05-04T12:33:16.553Z,42.51
2018-05-04T12:34:16.491Z,43.99
2018-05-04T12:35:16.434Z,43.99
2018-05-04T12:36:16.377Z,45.27
2018-05-04T12:37:16.321Z,43.45
2018-05-04T12:38:16.266Z,44.24
2018-05-04T12:39:16.208Z,43.74
2018-05-04T12:40:16.154Z,43.33
2018-05-04T12:41:16.097Z,43.23
2018-05-04T12:42:16.040Z,42.71
2018-05-04T12:43:15.982Z,44.45
2018-05-04T12:44:15.924Z,45.10
2018-05-04T12:45:15.868Z,44.93
2018-05-04T12:46:15.810Z,44.10
2018-05-04T12:47:15.752Z,43.16
2018-05-04T12:48:15.697Z,42.82
2018-05-04T12:49:15.647Z,46.82
2018-05-04T12:50:15.583Z,44.06
2018-05-04T12:51:15.525Z,45.08